createdAt,value
2019-01-27T00:00:15.837Z,990.96
2019-01-27T00:01:15.826Z,991.03
2019-01-27T00:02:15.820Z,990.96
2019-01-27T00:03:15.826Z,990.98
2019-01-27T00:04:15.802Z,991.01
2019-01-27T00:05:15.786Z,991.01
2019-01-27T00:06:15.777Z,990.97
2019-01-27T00:07:15.765Z,990.94
2019-01-27T00:08:15.764Z,990.95
2019-01-27T00:09:15.758Z,990.86
2019-01-27T00:10:15.729Z,990.86
2019-01-27T00:11:15.723Z,990.91
2019-01-27T00:12:15.716Z,990.84
2019-01-27T00:13:15.700Z,990.87
2019-01-27T00:14:15.712Z,990.80
2019-01-27T00:15:15.690Z,990.80
2019-01-27T00:16:15.669Z,990.85
2019-01-27T00:17:15.658Z,990.88
2019-01-27T00:18:15.659Z,990.82
2019-01-27T00:19:15.632Z,990.84
2019-01-27T00:20:15.636Z,990.85
2019-01-27T00:21:15.632Z,990.85
2019-01-27T00:22:15.606Z,990.79
2019-01-27T00:23:15.595Z,990.79
2019-01-27T00:24:15.585Z,990.81
2019-01-27T00:25:15.578Z,990.79
2019-01-27T00:26:15.571Z,990.80
2019-01-27T00:27:15.550Z,990.79
2019-01-27T00:28:15.541Z,990.73
2019-01-27T00:29:15.620Z,990.68
2019-01-27T00:30:15.522Z,990.67
2019-01-27T00:31:15.507Z,990.71
2019-01-27T00:32:15.510Z,990.67
2019-01-27T00:33:15.495Z,990.64
2019-01-27T00:34:15.479Z,990.65
2019-01-27T00:35:15.472Z,990.59
2019-01-27T00:36:15.460Z,990.59
2019-01-27T00:37:15.456Z,990.58
2019-01-27T00:38:15.446Z,990.57
2019-01-27T00:39:15.432Z,990.60
2019-01-27T00:40:15.421Z,990.53
2019-01-27T00:41:15.412Z,990.52
2019-01-27T00:42:15.398Z,990.49
2019-01-27T00:43:15.394Z,990.47
2019-01-27T00:44:15.370Z,990.51
2019-01-27T00:45:15.362Z,990.38
2019-01-27T00:46:15.356Z,990.38
2019-01-27T00:47:15.335Z,990.42
2019-01-27T00:48:15.329Z,990.34
2019-01-27T00:49:15.311Z,990.36
2019-01-27T00:50:15.309Z,990.30
2019-01-27T00:51:15.296Z,990.31
2019-01-27T00:52:15.296Z,990.26
2019-01-27T00:53:15.274Z,990.28
2019-01-27T00:54:15.264Z,990.28
2019-01-27T00:55:15.259Z,990.25
2019-01-27T00:56:15.245Z,990.33
2019-01-27T00:57:15.237Z,990.34
2019-01-27T00:58:15.230Z,990.34
2019-01-27T00:59:15.214Z,990.32
2019-01-27T01:00:15.212Z,990.35
2019-01-27T01:01:15.199Z,990.32
2019-01-27T01:02:15.182Z,990.39
2019-01-27T01:03:15.171Z,990.31
2019-01-27T01:04:15.161Z,990.33
2019-01-27T01:05:15.150Z,990.29
2019-01-27T01:06:15.158Z,990.26
2019-01-27T01:07:15.205Z,990.27
2019-01-27T01:08:15.124Z,990.28
2019-01-27T01:09:15.108Z,990.23
2019-01-27T01:10:15.102Z,990.23
2019-01-27T01:11:15.079Z,990.23
2019-01-27T01:12:15.088Z,990.16
2019-01-27T01:13:15.069Z,990.13
2019-01-27T01:14:15.061Z,990.13
2019-01-27T01:15:15.044Z,990.17
2019-01-27T01:16:15.032Z,990.10
2019-01-27T01:17:15.028Z,990.06
2019-01-27T01:18:15.023Z,990.10
2019-01-27T01:19:15.001Z,990.05
2019-01-27T01:20:14.991Z,990.08
2019-01-27T01:21:14.999Z,989.99
2019-01-27T01:22:14.978Z,989.99
2019-01-27T01:23:14.968Z,990.00
2019-01-27T01:24:14.949Z,989.99
2019-01-27T01:25:14.945Z,989.97
2019-01-27T01:26:14.928Z,989.99
2019-01-27T01:27:14.920Z,990.00
2019-01-27T01:28:14.914Z,989.97
2019-01-27T01:29:14.908Z,989.99
2019-01-27T01:30:14.907Z,989.95
2019-01-27T01:31:14.878Z,989.95
2019-01-27T01:32:14.873Z,989.92
2019-01-27T01:33:14.854Z,989.87
2019-01-27T01:34:14.855Z,989.85
2019-01-27T01:35:14.846Z,989.82
2019-01-27T01:36:14.830Z,989.80
2019-01-27T01:37:14.822Z,989.77
2019-01-27T01:38:14.805Z,989.73
2019-01-27T01:39:14.797Z,989.67
2019-01-27T01:40:14.793Z,989.71
2019-01-27T01:41:14.774Z,989.63
2019-01-27T01:42:14.759Z,989.61
2019-01-27T01:43:14.751Z,989.62
2019-01-27T01:44:14.745Z,989.60
2019-01-27T01:45:14.741Z,989.59
2019-01-27T01:46:14.724Z,989.55
2019-01-27T01:47:14.855Z,989.54
2019-01-27T01:48:14.694Z,989.52
2019-01-27T01:49:14.698Z,989.44
2019-01-27T01:50:14.680Z,989.42
2019-01-27T01:51:14.668Z,989.40
2019-01-27T01:52:14.667Z,989.35
2019-01-27T01:53:14.645Z,989.36
2019-01-27T01:54:14.630Z,989.36
2019-01-27T01:55:14.635Z,989.31
2019-01-27T01:56:14.613Z,989.33
2019-01-27T01:57:14.613Z,989.28
2019-01-27T01:58:14.589Z,989.34
2019-01-27T01:59:14.578Z,989.29
2019-01-27T02:00:14.568Z,989.27
2019-01-27T02:01:14.571Z,989.23
2019-01-27T02:02:14.549Z,989.25
2019-01-27T02:03:14.543Z,989.24
2019-01-27T02:04:14.550Z,989.25
2019-01-27T02:05:14.511Z,989.25
2019-01-27T02:06:14.510Z,989.22
2019-01-27T02:07:14.495Z,989.19
2019-01-27T02:08:14.496Z,989.17
2019-01-27T02:09:14.465Z,989.13
2019-01-27T02:10:14.461Z,989.11
2019-01-27T02:11:14.460Z,989.07
2019-01-27T02:12:14.445Z,989.06
2019-01-27T02:13:14.428Z,989.02
2019-01-27T02:14:14.435Z,989.02
2019-01-27T02:15:14.405Z,989.06
2019-01-27T02:16:14.394Z,989.00
2019-01-27T02:17:14.408Z,988.99
2019-01-27T02:18:14.380Z,988.97
2019-01-27T02:19:14.369Z,988.93
2019-01-27T02:20:14.379Z,988.94
2019-01-27T02:21:14.347Z,988.94
2019-01-27T02:22:14.336Z,988.93
2019-01-27T02:23:14.331Z,988.88
2019-01-27T02:24:14.321Z,988.89
2019-01-27T02:25:14.314Z,988.82
2019-01-27T02:26:14.323Z,988.81
2019-01-27T02:27:14.288Z,988.83
2019-01-27T02:28:14.267Z,988.82
2019-01-27T02:29:14.271Z,988.80
2019-01-27T02:30:14.255Z,988.76
2019-01-27T02:31:14.267Z,988.73
2019-01-27T02:32:14.227Z,988.72
2019-01-27T02:33:14.219Z,988.71
2019-01-27T02:34:14.215Z,988.70
2019-01-27T02:35:14.215Z,988.66
2019-01-27T02:36:14.195Z,988.63
2019-01-27T02:37:14.216Z,988.57
2019-01-27T02:38:14.168Z,988.56
2019-01-27T02:39:14.152Z,988.56
2019-01-27T02:40:14.140Z,988.49
2019-01-27T02:41:14.151Z,988.45
2019-01-27T02:42:14.122Z,988.47
2019-01-27T02:43:14.125Z,988.43
2019-01-27T02:44:14.100Z,988.44
2019-01-27T02:45:14.091Z,988.43
2019-01-27T02:46:14.081Z,988.36
2019-01-27T02:47:14.107Z,988.34
2019-01-27T02:48:14.068Z,988.31
2019-01-27T02:49:14.078Z,988.26
2019-01-27T02:50:14.041Z,988.20
2019-01-27T02:51:14.114Z,988.19
2019-01-27T02:52:14.145Z,988.19
2019-01-27T02:53:14.008Z,988.12
2019-01-27T02:54:14.009Z,988.09
2019-01-27T02:55:13.998Z,988.07
2019-01-27T02:56:13.974Z,988.06
2019-01-27T02:57:13.969Z,988.06
2019-01-27T02:58:13.951Z,988.00
2019-01-27T02:59:13.937Z,988.04
2019-01-27T03:00:13.942Z,988.02
2019-01-27T03:01:13.921Z,987.99
2019-01-27T03:02:13.905Z,987.93
2019-01-27T03:03:13.901Z,987.92
2019-01-27T03:04:13.885Z,987.90
2019-01-27T03:05:13.880Z,987.90
2019-01-27T03:06:13.875Z,987.80
2019-01-27T03:07:13.853Z,987.89
2019-01-27T03:08:13.841Z,987.88
2019-01-27T03:09:13.835Z,987.82
2019-01-27T03:10:13.839Z,987.81
2019-01-27T03:11:13.827Z,987.74
2019-01-27T03:12:13.802Z,987.75
2019-01-27T03:13:13.791Z,987.72
2019-01-27T03:14:13.777Z,987.74
2019-01-27T03:15:13.765Z,987.69
2019-01-27T03:16:13.759Z,987.74
2019-01-27T03:17:13.761Z,987.75
2019-01-27T03:18:13.736Z,987.73
2019-01-27T03:19:13.725Z,987.70
2019-01-27T03:20:13.713Z,987.66
2019-01-27T03:21:13.713Z,987.67
2019-01-27T03:22:13.695Z,987.73
2019-01-27T03:23:13.694Z,987.67
2019-01-27T03:24:13.685Z,987.66
2019-01-27T03:25:13.661Z,987.61
2019-01-27T03:26:13.654Z,987.61
2019-01-27T03:27:13.637Z,987.61
2019-01-27T03:28:13.638Z,987.62
2019-01-27T03:29:13.649Z,987.53
2019-01-27T03:30:13.613Z,987.61
2019-01-27T03:31:13.611Z,987.55
2019-01-27T03:32:13.583Z,987.57
2019-01-27T03:33:13.578Z,987.54
2019-01-27T03:34:13.615Z,987.59
2019-01-27T03:35:13.563Z,987.52
2019-01-27T03:36:13.555Z,987.46
2019-01-27T03:37:13.534Z,987.46
2019-01-27T03:38:13.527Z,987.45
2019-01-27T03:39:13.513Z,987.43
2019-01-27T03:40:13.515Z,987.41
2019-01-27T03:41:13.499Z,987.40
2019-01-27T03:42:13.480Z,987.36
2019-01-27T03:43:13.479Z,987.36
2019-01-27T03:44:13.462Z,987.41
2019-01-27T03:45:13.456Z,987.32
2019-01-27T03:46:13.436Z,987.32
2019-01-27T03:47:13.437Z,987.34
2019-01-27T03:48:13.414Z,987.26
2019-01-27T03:49:13.405Z,987.26
2019-01-27T03:50:13.393Z,987.23
2019-01-27T03:51:13.385Z,987.26
2019-01-27T03:52:13.374Z,987.27
2019-01-27T03:53:13.371Z,987.20
2019-01-27T03:54:13.348Z,987.18
2019-01-27T03:55:13.343Z,987.16
2019-01-27T03:56:13.333Z,987.09
2019-01-27T03:57:13.342Z,987.09
2019-01-27T03:58:13.311Z,987.07
2019-01-27T03:59:13.298Z,987.07
2019-01-27T04:00:13.309Z,987.04
2019-01-27T04:01:13.278Z,987.01
2019-01-27T04:02:13.273Z,987.00
2019-01-27T04:03:13.268Z,986.95
2019-01-27T04:04:13.251Z,986.96
2019-01-27T04:05:13.244Z,986.93
2019-01-27T04:06:13.226Z,986.95
2019-01-27T04:07:13.213Z,986.90
2019-01-27T04:08:13.207Z,986.87
2019-01-27T04:09:13.191Z,986.88
2019-01-27T04:10:13.180Z,986.85
2019-01-27T04:11:13.177Z,986.83
2019-01-27T04:12:13.164Z,986.83
2019-01-27T04:13:13.150Z,986.74
2019-01-27T04:14:13.144Z,986.79
2019-01-27T04:15:13.153Z,986.74
2019-01-27T04:16:13.123Z,986.75
2019-01-27T04:17:13.137Z,986.72
2019-01-27T04:18:13.091Z,986.75
2019-01-27T04:19:13.086Z,986.68
2019-01-27T04:20:13.072Z,986.67
2019-01-27T04:21:13.062Z,986.65
2019-01-27T04:22:13.056Z,986.64
2019-01-27T04:23:13.052Z,986.67
2019-01-27T04:24:13.029Z,986.64
2019-01-27T04:25:13.030Z,986.61
2019-01-27T04:26:13.011Z,986.59
2019-01-27T04:27:12.999Z,986.55
2019-01-27T04:28:12.985Z,986.59
2019-01-27T04:29:12.999Z,986.55
2019-01-27T04:30:12.972Z,986.59
2019-01-27T04:31:12.965Z,986.53
2019-01-27T04:32:12.941Z,986.50
2019-01-27T04:33:12.940Z,986.53
2019-01-27T04:34:12.932Z,986.50
2019-01-27T04:35:12.930Z,986.53
2019-01-27T04:36:12.908Z,986.44
2019-01-27T04:37:12.902Z,986.44
2019-01-27T04:38:12.881Z,986.47
2019-01-27T04:39:12.877Z,986.48
2019-01-27T04:40:12.859Z,986.42
2019-01-27T04:41:12.863Z,986.44
2019-01-27T04:42:12.852Z,986.42
2019-01-27T04:43:12.827Z,986.45
2019-01-27T04:44:12.816Z,986.45
2019-01-27T04:45:12.808Z,986.46
2019-01-27T04:46:12.807Z,986.39
2019-01-27T04:47:12.784Z,986.36
2019-01-27T04:48:12.777Z,986.32
2019-01-27T04:49:12.818Z,986.32
2019-01-27T04:50:12.751Z,986.29
2019-01-27T04:51:12.747Z,986.25
2019-01-27T04:52:12.750Z,986.27
2019-01-27T04:53:12.737Z,986.30
2019-01-27T04:54:12.728Z,986.24
2019-01-27T04:55:12.697Z,986.23
2019-01-27T04:56:12.693Z,986.23
2019-01-27T04:57:12.698Z,986.23
2019-01-27T04:58:12.696Z,986.19
2019-01-27T04:59:12.674Z,986.22
2019-01-27T05:00:12.662Z,986.15
2019-01-27T05:01:12.639Z,986.16
2019-01-27T05:02:12.632Z,986.14
2019-01-27T05:03:12.623Z,986.13
2019-01-27T05:04:12.606Z,986.13
2019-01-27T05:05:12.596Z,986.17
2019-01-27T05:06:12.580Z,986.15
2019-01-27T05:07:12.587Z,986.10
2019-01-27T05:08:12.597Z,986.10
2019-01-27T05:09:12.558Z,986.08
2019-01-27T05:10:12.546Z,986.07
2019-01-27T05:11:12.534Z,986.06
2019-01-27T05:12:12.519Z,986.01
2019-01-27T05:13:12.508Z,985.97
2019-01-27T05:14:12.507Z,985.99
2019-01-27T05:15:12.495Z,985.92
2019-01-27T05:16:12.489Z,985.97
2019-01-27T05:17:12.497Z,985.95
2019-01-27T05:18:12.461Z,985.84
2019-01-27T05:19:12.456Z,985.84
2019-01-27T05:20:12.447Z,985.91
2019-01-27T05:21:12.423Z,985.88
2019-01-27T05:22:12.420Z,985.86
2019-01-27T05:23:12.422Z,985.81
2019-01-27T05:24:12.398Z,985.83
2019-01-27T05:25:12.385Z,985.87
2019-01-27T05:26:12.376Z,985.81
2019-01-27T05:27:12.371Z,985.85
2019-01-27T05:28:12.363Z,985.82
2019-01-27T05:29:12.343Z,985.78
2019-01-27T05:30:12.352Z,985.75
2019-01-27T05:31:12.320Z,985.77
2019-01-27T05:32:12.328Z,985.71
2019-01-27T05:33:12.309Z,985.72
2019-01-27T05:34:12.302Z,985.68
2019-01-27T05:35:12.273Z,985.64
2019-01-27T05:36:12.260Z,985.61
2019-01-27T05:37:12.250Z,985.56
2019-01-27T05:38:12.244Z,985.63
2019-01-27T05:39:12.248Z,985.65
2019-01-27T05:40:12.220Z,985.55
2019-01-27T05:41:12.212Z,985.60
2019-01-27T05:42:12.222Z,985.52
2019-01-27T05:43:12.212Z,985.58
2019-01-27T05:44:12.183Z,985.57
2019-01-27T05:45:12.180Z,985.56
2019-01-27T05:46:12.162Z,985.55
2019-01-27T05:47:12.152Z,985.54
2019-01-27T05:48:12.139Z,985.57
2019-01-27T05:49:12.136Z,985.56
2019-01-27T05:50:12.131Z,985.58
2019-01-27T05:51:12.124Z,985.56
2019-01-27T05:52:12.096Z,985.58
2019-01-27T05:53:12.088Z,985.51
2019-01-27T05:54:12.079Z,985.49
2019-01-27T05:55:12.070Z,985.51
2019-01-27T05:56:12.059Z,985.47
2019-01-27T05:57:12.058Z,985.51
2019-01-27T05:58:12.028Z,985.47
2019-01-27T05:59:12.021Z,985.44
2019-01-27T06:00:12.013Z,985.44
2019-01-27T06:01:12.006Z,985.46
2019-01-27T06:02:11.995Z,985.40
2019-01-27T06:03:11.976Z,985.41
2019-01-27T06:04:11.972Z,985.37
2019-01-27T06:05:11.956Z,985.32
2019-01-27T06:06:11.950Z,985.32
2019-01-27T06:07:11.949Z,985.27
2019-01-27T06:08:11.931Z,985.27
2019-01-27T06:09:11.934Z,985.25
2019-01-27T06:10:11.902Z,985.26
2019-01-27T06:11:11.894Z,985.21
2019-01-27T06:12:11.915Z,985.20
2019-01-27T06:13:11.891Z,985.22
2019-01-27T06:14:11.875Z,985.23
2019-01-27T06:15:11.862Z,985.17
2019-01-27T06:16:11.845Z,985.16
2019-01-27T06:17:11.842Z,985.18
2019-01-27T06:18:11.827Z,985.16
2019-01-27T06:19:11.813Z,985.16
2019-01-27T06:20:11.812Z,985.16
2019-01-27T06:21:11.812Z,985.09
2019-01-27T06:22:11.779Z,985.06
2019-01-27T06:23:11.767Z,985.03
2019-01-27T06:24:11.756Z,985.04
2019-01-27T06:25:11.753Z,985.03
2019-01-27T06:26:11.744Z,985.03
2019-01-27T06:27:11.736Z,985.06
2019-01-27T06:28:11.714Z,985.05
2019-01-27T06:29:11.706Z,985.04
2019-01-27T06:30:11.694Z,985.05
2019-01-27T06:31:11.687Z,985.03
2019-01-27T06:32:11.679Z,985.02
2019-01-27T06:33:11.659Z,984.99
2019-01-27T06:34:11.656Z,984.94
2019-01-27T06:35:11.642Z,984.93
2019-01-27T06:36:11.632Z,984.99
2019-01-27T06:37:11.620Z,984.94
2019-01-27T06:38:11.614Z,984.99
2019-01-27T06:39:11.588Z,984.96
2019-01-27T06:40:11.586Z,984.93
2019-01-27T06:41:11.571Z,984.95
2019-01-27T06:42:11.564Z,984.91
2019-01-27T06:43:11.571Z,984.90
2019-01-27T06:44:11.543Z,984.92
2019-01-27T06:45:11.526Z,984.89
2019-01-27T06:46:11.531Z,984.84
2019-01-27T06:47:11.511Z,984.82
2019-01-27T06:48:11.506Z,984.73
2019-01-27T06:49:11.492Z,984.79
2019-01-27T06:50:11.478Z,984.76
2019-01-27T06:51:11.514Z,984.82
2019-01-27T06:52:11.456Z,984.81
2019-01-27T06:53:11.449Z,984.87
2019-01-27T06:54:11.446Z,984.79
2019-01-27T06:55:11.429Z,984.81
2019-01-27T06:56:11.426Z,984.79
2019-01-27T06:57:11.395Z,984.72
2019-01-27T06:58:11.392Z,984.82
2019-01-27T06:59:11.386Z,984.72
2019-01-27T07:00:11.375Z,984.71
2019-01-27T07:01:11.367Z,984.72
2019-01-27T07:02:11.358Z,984.72
2019-01-27T07:03:11.342Z,984.62
2019-01-27T07:04:11.325Z,984.62
2019-01-27T07:05:11.328Z,984.63
2019-01-27T07:06:11.318Z,984.59
2019-01-27T07:07:11.298Z,984.62
2019-01-27T07:08:11.296Z,984.60
2019-01-27T07:09:11.278Z,984.57
2019-01-27T07:10:11.267Z,984.58
2019-01-27T07:11:11.259Z,984.57
2019-01-27T07:12:11.248Z,984.59
2019-01-27T07:13:11.234Z,984.52
2019-01-27T07:14:11.239Z,984.55
2019-01-27T07:15:11.212Z,984.61
2019-01-27T07:16:11.259Z,984.56
2019-01-27T07:17:11.184Z,984.54
2019-01-27T07:18:11.175Z,984.51
2019-01-27T07:19:11.178Z,984.57
2019-01-27T07:20:11.154Z,984.48
2019-01-27T07:21:11.145Z,984.54
2019-01-27T07:22:11.165Z,984.56
2019-01-27T07:23:11.158Z,984.53
2019-01-27T07:24:11.112Z,984.55
2019-01-27T07:25:11.112Z,984.48
2019-01-27T07:26:11.104Z,984.45
2019-01-27T07:27:11.084Z,984.50
2019-01-27T07:28:11.078Z,984.48
2019-01-27T07:29:11.056Z,984.45
2019-01-27T07:30:11.046Z,984.38
2019-01-27T07:31:11.052Z,984.34
2019-01-27T07:32:11.048Z,984.34
2019-01-27T07:33:11.019Z,984.29
2019-01-27T07:34:11.006Z,984.24
2019-01-27T07:35:11.006Z,984.28
2019-01-27T07:36:10.982Z,984.28
2019-01-27T07:37:10.970Z,984.32
2019-01-27T07:38:10.958Z,984.26
2019-01-27T07:39:10.957Z,984.28
2019-01-27T07:40:10.940Z,984.22
2019-01-27T07:41:10.938Z,984.22
2019-01-27T07:42:10.921Z,984.21
2019-01-27T07:43:10.928Z,984.20
2019-01-27T07:44:10.916Z,984.26
2019-01-27T07:45:10.892Z,984.21
2019-01-27T07:46:10.882Z,984.22
2019-01-27T07:47:10.880Z,984.24
2019-01-27T07:48:10.854Z,984.18
2019-01-27T07:49:10.853Z,984.18
2019-01-27T07:50:10.841Z,984.14
2019-01-27T07:51:10.822Z,984.10
2019-01-27T07:52:10.824Z,984.12
2019-01-27T07:53:10.812Z,984.09
2019-01-27T07:54:10.793Z,984.03
2019-01-27T07:55:10.949Z,984.09
2019-01-27T07:56:12.237Z,984.10
2019-01-27T07:57:10.761Z,984.11
2019-01-27T07:58:10.754Z,984.05
2019-01-27T07:59:10.766Z,984.02
2019-01-27T08:00:10.746Z,984.05
2019-01-27T08:01:10.728Z,984.13
2019-01-27T08:02:10.722Z,984.11
2019-01-27T08:03:12.114Z,984.09
2019-01-27T08:04:10.693Z,984.11
2019-01-27T08:05:10.672Z,984.00
2019-01-27T08:06:10.670Z,984.06
2019-01-27T08:07:10.666Z,984.01
2019-01-27T08:08:10.659Z,984.01
2019-01-27T08:09:10.634Z,984.02
2019-01-27T08:10:10.625Z,983.98
2019-01-27T08:11:10.612Z,984.01
2019-01-27T08:12:10.607Z,984.00
2019-01-27T08:13:10.606Z,983.99
2019-01-27T08:14:10.582Z,983.97
2019-01-27T08:15:10.574Z,983.97
2019-01-27T08:16:10.568Z,983.96
2019-01-27T08:17:10.556Z,983.94
2019-01-27T08:18:10.542Z,983.91
2019-01-27T08:19:10.535Z,983.90
2019-01-27T08:20:10.516Z,983.91
2019-01-27T08:21:10.506Z,983.91
2019-01-27T08:22:10.501Z,983.90
2019-01-27T08:23:10.497Z,983.90
2019-01-27T08:24:10.487Z,983.88
2019-01-27T08:25:10.521Z,983.91
2019-01-27T08:26:10.464Z,983.87
2019-01-27T08:27:10.442Z,983.84
2019-01-27T08:28:10.442Z,983.83
2019-01-27T08:29:10.422Z,983.81
2019-01-27T08:30:10.426Z,983.83
2019-01-27T08:31:10.426Z,983.78
2019-01-27T08:32:10.389Z,983.83
2019-01-27T08:33:10.382Z,983.80
2019-01-27T08:34:10.390Z,983.81
2019-01-27T08:35:10.359Z,983.83
2019-01-27T08:36:10.355Z,983.83
2019-01-27T08:37:10.334Z,983.80
2019-01-27T08:38:10.330Z,983.80
2019-01-27T08:39:10.322Z,983.83
2019-01-27T08:40:10.318Z,983.81
2019-01-27T08:41:10.300Z,983.78
2019-01-27T08:42:10.295Z,983.78
2019-01-27T08:43:10.276Z,983.77
2019-01-27T08:44:10.266Z,983.79
2019-01-27T08:45:10.254Z,983.79
2019-01-27T08:46:10.253Z,983.84
2019-01-27T08:47:10.234Z,983.82
2019-01-27T08:48:10.246Z,983.83
2019-01-27T08:49:10.218Z,983.82
2019-01-27T08:50:10.202Z,983.86
2019-01-27T08:51:10.197Z,983.81
2019-01-27T08:52:10.185Z,983.79
2019-01-27T08:53:10.177Z,983.79
2019-01-27T08:54:10.180Z,983.77
2019-01-27T08:55:10.154Z,983.81
2019-01-27T08:56:10.138Z,983.76
2019-01-27T08:57:10.129Z,983.75
2019-01-27T08:58:10.136Z,983.74
2019-01-27T08:59:10.118Z,983.75
2019-01-27T09:00:10.126Z,983.73
2019-01-27T09:01:10.088Z,983.68
2019-01-27T09:02:10.083Z,983.70
2019-01-27T09:03:10.071Z,983.63
2019-01-27T09:04:10.080Z,983.65
2019-01-27T09:05:10.052Z,983.64
2019-01-27T09:06:10.040Z,983.56
2019-01-27T09:07:10.018Z,983.56
2019-01-27T09:08:10.012Z,983.54
2019-01-27T09:09:10.006Z,983.56
2019-01-27T09:10:10.000Z,983.52
2019-01-27T09:11:09.991Z,983.53
2019-01-27T09:12:09.978Z,983.43
2019-01-27T09:13:11.296Z,983.40
2019-01-27T09:14:09.954Z,983.37
2019-01-27T09:15:09.936Z,983.46
2019-01-27T09:16:09.944Z,983.37
2019-01-27T09:17:09.926Z,983.37
2019-01-27T09:18:09.944Z,983.36
2019-01-27T09:19:09.923Z,983.29
2019-01-27T09:20:09.891Z,983.28
2019-01-27T09:21:09.884Z,983.28
2019-01-27T09:22:09.879Z,983.23
2019-01-27T09:23:09.855Z,983.27
2019-01-27T09:24:09.850Z,983.34
2019-01-27T09:25:09.832Z,983.27
2019-01-27T09:26:09.820Z,983.28
2019-01-27T09:27:09.814Z,983.27
2019-01-27T09:28:09.812Z,983.25
2019-01-27T09:29:09.793Z,983.23
2019-01-27T09:30:09.776Z,983.24
2019-01-27T09:31:09.770Z,983.21
2019-01-27T09:32:09.754Z,983.16
2019-01-27T09:33:09.753Z,983.20
2019-01-27T09:34:13.313Z,983.19
2019-01-27T09:35:09.728Z,983.22
2019-01-27T09:36:09.708Z,983.22
2019-01-27T09:37:09.707Z,983.19
2019-01-27T09:38:09.693Z,983.21
2019-01-27T09:39:09.696Z,983.22
2019-01-27T09:40:09.667Z,983.15
2019-01-27T09:41:09.661Z,983.24
2019-01-27T09:42:09.671Z,983.18
2019-01-27T09:43:09.652Z,983.18
2019-01-27T09:44:09.632Z,983.11
2019-01-27T09:45:09.623Z,983.22
2019-01-27T09:46:11.569Z,983.23
2019-01-27T09:47:09.598Z,983.18
2019-01-27T09:48:09.582Z,983.15
2019-01-27T09:49:09.574Z,983.12
2019-01-27T09:50:09.577Z,983.19
2019-01-27T09:51:09.561Z,983.21
2019-01-27T09:52:09.548Z,983.21
2019-01-27T09:53:09.546Z,983.16
2019-01-27T09:54:09.526Z,983.14
2019-01-27T09:55:09.519Z,983.09
2019-01-27T09:56:09.505Z,983.18
2019-01-27T09:57:09.480Z,983.14
2019-01-27T09:58:09.476Z,983.14
2019-01-27T09:59:09.469Z,983.09
2019-01-27T10:00:09.451Z,983.06
2019-01-27T10:01:10.013Z,983.14
2019-01-27T10:02:09.501Z,983.10
2019-01-27T10:03:09.470Z,983.07
2019-01-27T10:04:09.440Z,983.07
2019-01-27T10:05:09.424Z,983.09
2019-01-27T10:06:09.386Z,983.04
2019-01-27T10:07:09.446Z,983.02
2019-01-27T10:08:09.363Z,982.99
2019-01-27T10:09:09.408Z,983.01
2019-01-27T10:10:09.359Z,983.00
2019-01-27T10:11:09.407Z,983.00
2019-01-27T10:12:09.333Z,982.98
2019-01-27T10:13:09.369Z,983.06
2019-01-27T10:14:09.295Z,983.00
2019-01-27T10:15:09.297Z,983.02
2019-01-27T10:16:09.300Z,982.98
2019-01-27T10:17:09.290Z,982.99
2019-01-27T10:18:09.274Z,982.93
2019-01-27T10:19:09.268Z,982.94
2019-01-27T10:20:09.244Z,982.83
2019-01-27T10:21:09.243Z,982.79
2019-01-27T10:22:09.218Z,982.85
2019-01-27T10:23:09.212Z,982.83
2019-01-27T10:24:09.196Z,982.85
2019-01-27T10:25:15.864Z,982.77
2019-01-27T10:26:10.214Z,982.76
2019-01-27T10:27:09.166Z,982.75
2019-01-27T10:28:09.169Z,982.71
2019-01-27T10:29:10.557Z,982.77
2019-01-27T10:30:09.145Z,982.77
2019-01-27T10:31:09.116Z,982.73
2019-01-27T10:32:09.121Z,982.75
2019-01-27T10:33:09.102Z,982.74
2019-01-27T10:34:09.141Z,982.73
2019-01-27T10:35:09.081Z,982.74
2019-01-27T10:36:09.079Z,982.77
2019-01-27T10:37:12.221Z,982.70
2019-01-27T10:38:09.048Z,982.72
2019-01-27T10:39:09.040Z,982.68
2019-01-27T10:40:10.191Z,982.61
2019-01-27T10:41:09.022Z,982.63
2019-01-27T10:42:09.013Z,982.61
2019-01-27T10:43:08.989Z,982.64
2019-01-27T10:44:08.985Z,982.65
2019-01-27T10:45:08.986Z,982.65
2019-01-27T10:46:08.966Z,982.63
2019-01-27T10:47:08.960Z,982.60
2019-01-27T10:48:08.937Z,982.58
2019-01-27T10:49:08.926Z,982.57
2019-01-27T10:50:08.920Z,982.57
2019-01-27T10:51:08.917Z,982.60
2019-01-27T10:52:08.903Z,982.54
2019-01-27T10:53:08.900Z,982.53
2019-01-27T10:54:08.876Z,982.50
2019-01-27T10:55:08.870Z,982.62
2019-01-27T10:56:08.860Z,982.57
2019-01-27T10:57:08.895Z,982.55
2019-01-27T10:58:08.852Z,982.53
2019-01-27T10:59:08.816Z,982.54
2019-01-27T11:00:08.812Z,982.48
2019-01-27T11:01:08.797Z,982.53
2019-01-27T11:02:08.792Z,982.51
2019-01-27T11:03:08.774Z,982.54
2019-01-27T11:04:08.767Z,982.49
2019-01-27T11:05:08.897Z,982.48
2019-01-27T11:06:08.738Z,982.49
2019-01-27T11:07:08.738Z,982.50
2019-01-27T11:08:08.771Z,982.49
2019-01-27T11:09:08.725Z,982.48
2019-01-27T11:10:08.708Z,982.41
2019-01-27T11:11:08.691Z,982.40
2019-01-27T11:12:08.678Z,982.40
2019-01-27T11:13:08.670Z,982.41
2019-01-27T11:14:08.672Z,982.36
2019-01-27T11:15:08.666Z,982.40
2019-01-27T11:16:08.636Z,982.39
2019-01-27T11:17:08.630Z,982.33
2019-01-27T11:18:08.615Z,982.33
2019-01-27T11:19:08.613Z,982.32
2019-01-27T11:20:08.594Z,982.25
2019-01-27T11:21:08.592Z,982.22
2019-01-27T11:22:08.654Z,982.24
2019-01-27T11:23:08.558Z,982.26
2019-01-27T11:24:08.554Z,982.20
2019-01-27T11:25:08.552Z,982.17
2019-01-27T11:26:08.538Z,982.17
2019-01-27T11:27:08.542Z,982.17
2019-01-27T11:28:08.533Z,982.14
2019-01-27T11:29:08.503Z,982.19
2019-01-27T11:30:08.490Z,982.14
2019-01-27T11:31:08.473Z,982.13
2019-01-27T11:32:08.476Z,982.09
2019-01-27T11:33:08.472Z,982.02
2019-01-27T11:34:08.440Z,982.06
2019-01-27T11:35:08.438Z,981.99
2019-01-27T11:36:08.463Z,981.96
2019-01-27T11:37:08.427Z,981.91
2019-01-27T11:38:08.652Z,981.92
2019-01-27T11:39:08.570Z,981.89
2019-01-27T11:40:08.383Z,981.88
2019-01-27T11:41:08.376Z,981.89
2019-01-27T11:42:08.360Z,981.89
2019-01-27T11:43:08.356Z,981.84
2019-01-27T11:44:08.355Z,981.79
2019-01-27T11:45:08.362Z,981.77
2019-01-27T11:46:08.324Z,981.76
2019-01-27T11:47:08.311Z,981.76
2019-01-27T11:48:08.298Z,981.81
2019-01-27T11:49:08.292Z,981.75
2019-01-27T11:50:08.292Z,981.82
2019-01-27T11:51:08.277Z,981.81
2019-01-27T11:52:15.305Z,981.79
2019-01-27T11:53:09.248Z,981.81
2019-01-27T11:54:08.236Z,981.77
2019-01-27T11:55:08.237Z,981.77
2019-01-27T11:56:08.227Z,981.68
2019-01-27T11:57:08.239Z,981.71
2019-01-27T11:58:08.196Z,981.71
2019-01-27T11:59:08.217Z,981.71
2019-01-27T12:00:08.172Z,981.68
2019-01-27T12:01:08.246Z,981.70
2019-01-27T12:02:08.175Z,981.72
2019-01-27T12:03:08.140Z,981.70
2019-01-27T12:04:08.135Z,981.62
2019-01-27T12:05:08.123Z,981.57
2019-01-27T12:06:08.110Z,981.51
2019-01-27T12:07:08.112Z,981.55
2019-01-27T12:08:08.111Z,981.64
2019-01-27T12:09:08.080Z,981.56
2019-01-27T12:10:08.062Z,981.58
2019-01-27T12:11:08.064Z,981.60
2019-01-27T12:12:08.046Z,981.58
2019-01-27T12:13:08.038Z,981.51
2019-01-27T12:14:08.025Z,981.58
2019-01-27T12:15:08.013Z,981.52
2019-01-27T12:16:07.998Z,981.51
2019-01-27T12:17:07.988Z,981.51
2019-01-27T12:18:07.986Z,981.52
2019-01-27T12:19:07.981Z,981.46
2019-01-27T12:20:07.964Z,981.51
2019-01-27T12:21:07.944Z,981.51
2019-01-27T12:22:07.938Z,981.47
2019-01-27T12:23:07.971Z,981.45
2019-01-27T12:24:07.943Z,981.49
2019-01-27T12:25:07.904Z,981.45
2019-01-27T12:26:07.928Z,981.52
2019-01-27T12:27:07.889Z,981.47
2019-01-27T12:28:07.889Z,981.51